Time;durP1;ratioP1;P1;durP2;ratioP2;P2;SDS_P1;SDS_P2;PMS_P1;PMS_P2;Temp;Humidity;BMP_temperature;BMP_pressure;BME280_temperature;BME280_humidity;BME280_pressure;Samples;Min_cycle;Max_cycle;Signal;HPM_P1;HPM_P2
2022/10/28 00:04:22;;;;;;;2.10;1.10;;;;;;;;;;10301249;28;20527;-78
2022/10/28 00:09:27;;;;;;;4.88;1.65;;;;;;;;;;10323915;28;20058;-78
2022/10/28 00:14:31;;;;;;;2.05;1.20;;;;;;;;;;10309118;28;20046;-78
2022/10/28 00:19:34;;;;;;;2.53;1.40;;;;;;;;;;10325135;28;20038;-78
2022/10/28 00:24:39;;;;;;;3.78;1.50;;;;;;;;;;10316284;28;20090;-78
2022/10/28 00:29:42;;;;;;;3.58;1.75;;;;;;;;;;10307233;28;20046;-78
2022/10/28 00:34:45;;;;;;;3.75;1.23;;;;;;;;;;10317069;28;20046;-79
2022/10/28 00:39:50;;;;;;;2.67;1.25;;;;;;;;;;10332801;28;20054;-80
2022/10/28 00:44:56;;;;;;;7.65;2.17;;;;;;;;;;10303143;28;20050;-79
2022/10/28 00:50:18;;;;;;;3.47;1.30;;;;;;;;;;10315628;28;20050;-79
2022/10/28 00:55:24;;;;;;;3.95;1.38;;;;;;;;;;10317380;28;20046;-79
2022/10/28 01:00:27;;;;;;;5.45;1.63;;;;;;;;;;10304360;28;20046;-79
2022/10/28 01:05:33;;;;;;;4.15;1.30;;;;;;;;;;10318160;28;20038;-78
2022/10/28 01:10:56;;;;;;;3.70;1.42;;;;;;;;;;10317982;28;20054;-78
2022/10/28 01:16:09;;;;;;;4.38;1.70;;;;;;;;;;10311633;28;20049;-78
2022/10/28 01:21:29;;;;;;;3.33;1.92;;;;;;;;;;10316556;28;20049;-78
2022/10/28 01:26:58;;;;;;;4.50;1.67;;;;;;;;;;10295017;28;20054;-78
2022/10/28 01:32:08;;;;;;;3.88;1.80;;;;;;;;;;10313412;28;20060;-78
2022/10/28 01:37:14;;;;;;;3.58;1.50;;;;;;;;;;10298299;28;20053;-80
2022/10/28 01:42:27;;;;;;;3.53;1.40;;;;;;;;;;10304364;28;20435;-81
2022/10/28 01:47:37;;;;;;;2.85;1.52;;;;;;;;;;10313028;28;20050;-80
2022/10/28 01:52:42;;;;;;;4.22;1.38;;;;;;;;;;10279784;28;20049;-82
2022/10/28 01:57:47;;;;;;;2.78;1.08;;;;;;;;;;10321001;28;20064;-80
2022/10/28 02:02:52;;;;;;;2.37;1.40;;;;;;;;;;10319546;28;20510;-80
2022/10/28 02:07:59;;;;;;;3.22;1.60;;;;;;;;;;10312566;28;20050;-78
2022/10/28 02:13:06;;;;;;;3.20;1.27;;;;;;;;;;10288743;28;20053;-80
2022/10/28 02:18:23;;;;;;;3.55;1.33;;;;;;;;;;10322680;28;20057;-78
2022/10/28 02:23:37;;;;;;;5.93;1.38;;;;;;;;;;10314087;28;20046;-79
2022/10/28 02:28:48;;;;;;;4.57;1.70;;;;;;;;;;10305969;28;20050;-79
2022/10/28 02:33:57;;;;;;;4.15;1.42;;;;;;;;;;10311962;28;20067;-80
2022/10/28 02:39:02;;;;;;;5.72;1.33;;;;;;;;;;10310130;28;20050;-79
2022/10/28 02:44:10;;;;;;;4.65;1.50;;;;;;;;;;10309266;28;20042;-80
2022/10/28 02:49:15;;;;;;;5.50;1.30;;;;;;;;;;10314690;28;20242;-82
2022/10/28 02:54:22;;;;;;;2.38;1.20;;;;;;;;;;10309716;28;20518;-80
2022/10/28 02:59:25;;;;;;;1.77;1.00;;;;;;;;;;10318434;28;20042;-81
2022/10/28 03:04:30;;;;;;;2.22;1.20;;;;;;;;;;10298505;28;20046;-80
2022/10/28 03:09:33;;;;;;;2.33;1.10;;;;;;;;;;10321351;28;20034;-80
2022/10/28 03:14:36;;;;;;;3.67;1.05;;;;;;;;;;10290028;28;20054;-80
2022/10/28 03:19:42;;;;;;;3.05;1.35;;;;;;;;;;10305500;28;20451;-80
2022/10/28 03:24:45;;;;;;;2.70;1.42;;;;;;;;;;10320799;28;20519;-81
2022/10/28 03:29:48;;;;;;;2.83;1.10;;;;;;;;;;10311988;28;20050;-80
2022/10/28 03:34:53;;;;;;;2.42;1.35;;;;;;;;;;10295775;28;20050;-80
2022/10/28 03:39:56;;;;;;;5.82;1.60;;;;;;;;;;10310442;28;20042;-80
2022/10/28 03:44:59;;;;;;;4.70;1.35;;;;;;;;;;10308004;28;20040;-80
2022/10/28 03:50:04;;;;;;;5.10;1.75;;;;;;;;;;10320621;28;20097;-81
2022/10/28 03:55:09;;;;;;;;;;;;;;;;;;10313364;28;20050;-79
2022/10/28 04:00:13;;;;;;;4.72;1.20;;;;;;;;;;10319441;28;19929;-79
2022/10/28 04:05:18;;;;;;;3.42;1.20;;;;;;;;;;10321235;28;20039;-82
2022/10/28 04:10:22;;;;;;;4.37;1.57;;;;;;;;;;10328042;28;20046;-81
2022/10/28 04:15:25;;;;;;;2.92;1.95;;;;;;;;;;10291609;28;20047;-80
2022/10/28 04:20:33;;;;;;;3.80;1.30;;;;;;;;;;10290253;28;20078;-81
2022/10/28 04:25:36;;;;;;;1.67;1.00;;;;;;;;;;10316582;28;20061;-80
2022/10/28 04:30:39;;;;;;;3.85;1.70;;;;;;;;;;10323249;28;20034;-79
2022/10/28 04:35:45;;;;;;;5.25;2.25;;;;;;;;;;10308087;28;20042;-78
2022/10/28 04:40:48;;;;;;;6.27;1.80;;;;;;;;;;10305515;28;20137;-79
2022/10/28 04:45:52;;;;;;;3.25;1.55;;;;;;;;;;10286571;28;20294;-79
2022/10/28 04:50:58;;;;;;;4.47;1.90;;;;;;;;;;10290992;28;20061;-79
2022/10/28 04:56:01;;;;;;;3.80;1.45;;;;;;;;;;10326286;28;20049;-78
2022/10/28 05:01:08;;;;;;;4.90;1.60;;;;;;;;;;10294166;28;20090;-78
2022/10/28 05:06:13;;;;;;;1.85;1.33;;;;;;;;;;10311410;28;20060;-78
2022/10/28 05:11:16;;;;;;;8.18;1.63;;;;;;;;;;10323079;28;20049;-79
2022/10/28 05:16:20;;;;;;;2.38;1.20;;;;;;;;;;10297876;28;20053;-78
2022/10/28 05:21:24;;;;;;;2.85;1.30;;;;;;;;;;10307735;28;20073;-78
2022/10/28 05:26:28;;;;;;;2.88;1.13;;;;;;;;;;10291667;28;20054;-78
2022/10/28 05:31:31;;;;;;;1.40;0.73;;;;;;;;;;10325991;28;20050;-78
2022/10/28 05:36:35;;;;;;;2.25;1.10;;;;;;;;;;10309622;28;20053;-78
2022/10/28 05:41:39;;;;;;;4.38;1.63;;;;;;;;;;10316792;28;20046;-78
2022/10/28 05:46:42;;;;;;;3.35;1.40;;;;;;;;;;10323281;28;20053;-78
2022/10/28 05:51:46;;;;;;;4.78;1.50;;;;;;;;;;10306166;28;20042;-79
2022/10/28 05:56:50;;;;;;;2.58;1.23;;;;;;;;;;10323907;28;20050;-78
2022/10/28 06:01:53;;;;;;;5.35;1.73;;;;;;;;;;10323684;28;20744;-78
2022/10/28 06:06:58;;;;;;;7.28;2.20;;;;;;;;;;10324712;28;20030;-79
2022/10/28 06:12:01;;;;;;;5.20;1.83;;;;;;;;;;10313227;28;20050;-78
2022/10/28 06:17:04;;;;;;;4.30;1.70;;;;;;;;;;10311018;28;20049;-77
2022/10/28 06:22:09;;;;;;;4.20;1.17;;;;;;;;;;10319221;28;20411;-79
2022/10/28 06:27:12;;;;;;;2.72;1.13;;;;;;;;;;10317884;28;20042;-79
2022/10/28 06:32:16;;;;;;;4.05;0.95;;;;;;;;;;10311479;28;20720;-78
2022/10/28 06:37:20;;;;;;;5.45;1.30;;;;;;;;;;10320842;28;20034;-78
2022/10/28 06:42:26;;;;;;;3.78;1.20;;;;;;;;;;10319266;28;20043;-78
2022/10/28 06:47:30;;;;;;;6.60;1.45;;;;;;;;;;10315392;28;20100;-80
2022/10/28 06:52:34;;;;;;;2.40;1.35;;;;;;;;;;10309893;28;20049;-80
2022/10/28 06:57:38;;;;;;;3.28;1.33;;;;;;;;;;10315779;28;20569;-79
2022/10/28 07:02:41;;;;;;;4.00;1.45;;;;;;;;;;10310378;28;20046;-80
2022/10/28 07:07:46;;;;;;;3.05;1.20;;;;;;;;;;10311742;28;20034;-78
2022/10/28 07:12:49;;;;;;;3.55;1.20;;;;;;;;;;10295351;28;20058;-81
2022/10/28 07:17:53;;;;;;;1.23;1.05;;;;;;;;;;10285899;28;20046;-81
2022/10/28 07:22:59;;;;;;;3.67;1.40;;;;;;;;;;10312325;28;20419;-81
2022/10/28 07:28:03;;;;;;;2.47;0.93;;;;;;;;;;10320179;28;20031;-80
2022/10/28 07:33:07;;;;;;;3.63;1.42;;;;;;;;;;10323421;28;20062;-79
2022/10/28 07:38:11;;;;;;;2.40;0.85;;;;;;;;;;10312408;28;20042;-79
2022/10/28 07:43:15;;;;;;;2.75;1.13;;;;;;;;;;10314351;28;20058;-80
2022/10/28 07:48:18;;;;;;;2.63;1.35;;;;;;;;;;10316729;28;20045;-78
2022/10/28 07:53:23;;;;;;;4.18;1.23;;;;;;;;;;10312788;28;20397;-80
2022/10/28 07:58:27;;;;;;;4.57;1.10;;;;;;;;;;10314469;28;20454;-80
2022/10/28 08:03:31;;;;;;;3.08;1.30;;;;;;;;;;10313597;28;20050;-81
2022/10/28 08:08:41;;;;;;;3.85;1.00;;;;;;;;;;10321497;28;20042;-80
2022/10/28 08:13:45;;;;;;;2.63;0.90;;;;;;;;;;10319899;28;20042;-81
2022/10/28 08:18:48;;;;;;;1.08;0.70;;;;;;;;;;10320394;28;20058;-78
2022/10/28 08:23:54;;;;;;;3.20;1.40;;;;;;;;;;10319077;28;20058;-77
2022/10/28 08:28:57;;;;;;;2.67;1.10;;;;;;;;;;10309576;28;20447;-79
2022/10/28 08:34:00;;;;;;;4.72;1.13;;;;;;;;;;10313575;28;20832;-78
2022/10/28 08:39:05;;;;;;;1.38;0.82;;;;;;;;;;10315149;28;20038;-78
2022/10/28 08:44:36;;;;;;;3.15;0.80;;;;;;;;;;10317289;28;20049;-77
2022/10/28 08:49:41;;;;;;;2.80;1.33;;;;;;;;;;10301206;28;20043;-78
2022/10/28 08:54:51;;;;;;;2.70;0.90;;;;;;;;;;10317290;28;20127;-79
2022/10/28 08:59:55;;;;;;;3.22;1.13;;;;;;;;;;10294105;28;20058;-79
2022/10/28 09:05:04;;;;;;;5.43;1.20;;;;;;;;;;10326943;28;20057;-78
2022/10/28 09:10:17;;;;;;;2.53;0.90;;;;;;;;;;10294072;28;20455;-79
2022/10/28 09:15:28;;;;;;;2.10;0.82;;;;;;;;;;10302203;28;20043;-78
2022/10/28 09:20:43;;;;;;;3.47;1.08;;;;;;;;;;10308228;28;20042;-78
2022/10/28 09:25:55;;;;;;;2.42;1.20;;;;;;;;;;10302071;28;20047;-79
2022/10/28 09:31:09;;;;;;;1.73;0.90;;;;;;;;;;10308578;28;20418;-79
2022/10/28 09:36:16;;;;;;;5.05;1.33;;;;;;;;;;10311636;28;20057;-79
2022/10/28 09:41:25;;;;;;;3.95;1.20;;;;;;;;;;10317873;28;20047;-79
2022/10/28 09:46:31;;;;;;;3.13;1.08;;;;;;;;;;10299568;28;20050;-79
2022/10/28 09:51:43;;;;;;;6.55;1.60;;;;;;;;;;10309865;28;20097;-78
2022/10/28 09:56:48;;;;;;;2.03;1.10;;;;;;;;;;10309297;28;20507;-79
2022/10/28 10:01:51;;;;;;;6.95;1.67;;;;;;;;;;10307693;28;20434;-78
2022/10/28 10:06:58;;;;;;;4.03;1.00;;;;;;;;;;10282936;28;20050;-78
2022/10/28 10:12:08;;;;;;;5.85;0.95;;;;;;;;;;10290554;28;20042;-78
2022/10/28 10:17:15;;;;;;;2.88;1.13;;;;;;;;;;10300183;28;20046;-78
2022/10/28 10:22:30;;;;;;;3.22;0.90;;;;;;;;;;10314872;28;20062;-77
2022/10/28 10:27:34;;;;;;;4.22;1.13;;;;;;;;;;10314802;28;20038;-80
2022/10/28 10:32:38;;;;;;;2.75;0.90;;;;;;;;;;10314903;28;20046;-79
2022/10/28 10:37:44;;;;;;;3.05;1.23;;;;;;;;;;10301363;28;20058;-79
2022/10/28 10:42:49;;;;;;;3.35;1.30;;;;;;;;;;10306632;28;20046;-79
2022/10/28 10:48:14;;;;;;;4.20;1.15;;;;;;;;;;10309081;28;20105;-79
2022/10/28 10:53:23;;;;;;;3.20;1.02;;;;;;;;;;10312219;28;20117;-79
2022/10/28 10:58:30;;;;;;;3.67;1.40;;;;;;;;;;10289489;28;20049;-78
2022/10/28 11:03:37;;;;;;;6.53;1.20;;;;;;;;;;10316518;28;20042;-80
2022/10/28 11:08:42;;;;;;;2.30;0.80;;;;;;;;;;10308294;28;20045;-79
2022/10/28 11:13:48;;;;;;;4.70;1.30;;;;;;;;;;10324705;28;20050;-80
2022/10/28 11:18:52;;;;;;;;;;;;;;;;;;10317807;28;20081;-80
2022/10/28 11:24:07;;;;;;;3.95;1.00;;;;;;;;;;10297367;28;20309;-79
2022/10/28 11:29:14;;;;;;;3.87;1.00;;;;;;;;;;10318052;28;20451;-80
2022/10/28 11:34:39;;;;;;;3.83;1.17;;;;;;;;;;10280083;28;20067;-79
2022/10/28 11:39:52;;;;;;;2.20;1.00;;;;;;;;;;10306708;28;20038;-78
2022/10/28 11:45:03;;;;;;;3.15;1.17;;;;;;;;;;10308714;28;20325;-81
2022/10/28 11:50:23;;;;;;;2.53;1.17;;;;;;;;;;10296963;28;20797;-77
2022/10/28 11:55:34;;;;;;;3.55;1.38;;;;;;;;;;10307983;28;20529;-78
2022/10/28 12:00:48;;;;;;;3.97;0.80;;;;;;;;;;10290938;28;20046;-79
2022/10/28 12:06:01;;;;;;;7.38;1.15;;;;;;;;;;10294175;28;20109;-78
2022/10/28 12:11:19;;;;;;;2.42;0.98;;;;;;;;;;10315745;28;20057;-79
2022/10/28 12:16:32;;;;;;;7.28;1.23;;;;;;;;;;10318889;28;20047;-80
2022/10/28 12:21:38;;;;;;;7.18;1.80;;;;;;;;;;10317899;28;20089;-80
2022/10/28 12:26:47;;;;;;;2.38;0.98;;;;;;;;;;10322867;28;20031;-81
2022/10/28 12:31:56;;;;;;;1.33;0.65;;;;;;;;;;10317339;28;20054;-78
2022/10/28 12:37:05;;;;;;;3.05;0.93;;;;;;;;;;10284925;28;20050;-80
2022/10/28 12:42:14;;;;;;;4.70;1.45;;;;;;;;;;10296131;28;20157;-79
2022/10/28 12:47:26;;;;;;;5.80;1.48;;;;;;;;;;10297741;28;20039;-77
2022/10/28 12:52:40;;;;;;;3.30;1.33;;;;;;;;;;10280909;28;20042;-80
2022/10/28 12:57:46;;;;;;;3.60;1.33;;;;;;;;;;10281772;28;20077;-79
2022/10/28 13:02:59;;;;;;;3.03;1.10;;;;;;;;;;10293058;28;20050;-80
2022/10/28 13:08:42;;;;;;;3.72;1.23;;;;;;;;;;10294255;28;20050;-79
2022/10/28 13:13:51;;;;;;;4.55;1.60;;;;;;;;;;10156571;29;20048;-79
2022/10/28 13:19:25;;;;;;;2.25;1.10;;;;;;;;;;10270178;28;20160;-78
2022/10/28 13:24:34;;;;;;;3.07;1.03;;;;;;;;;;10293043;28;20057;-79
2022/10/28 13:29:40;;;;;;;4.68;1.30;;;;;;;;;;10311834;28;20400;-79
2022/10/28 13:34:45;;;;;;;3.45;1.25;;;;;;;;;;10297447;28;20274;-78
2022/10/28 13:39:49;;;;;;;2.17;0.80;;;;;;;;;;10286352;28;20055;-79
2022/10/28 13:44:54;;;;;;;5.78;1.30;;;;;;;;;;10315858;28;20415;-79
2022/10/28 13:50:21;;;;;;;6.00;1.52;;;;;;;;;;10313383;28;20046;-80
2022/10/28 13:55:41;;;;;;;2.53;1.00;;;;;;;;;;10287955;28;20042;-78
2022/10/28 14:00:45;;;;;;;2.15;1.20;;;;;;;;;;10304006;28;20042;-77
2022/10/28 14:05:55;;;;;;;5.00;0.90;;;;;;;;;;10316586;28;20420;-79
2022/10/28 14:11:06;;;;;;;6.07;1.00;;;;;;;;;;10321033;28;20054;-78
2022/10/28 14:16:24;;;;;;;5.47;0.82;;;;;;;;;;10311300;28;20046;-79
2022/10/28 14:21:44;;;;;;;3.53;1.13;;;;;;;;;;10308196;28;20042;-80
2022/10/28 14:27:19;;;;;;;4.03;1.30;;;;;;;;;;10306533;28;20053;-78
2022/10/28 14:32:45;;;;;;;4.53;1.23;;;;;;;;;;10313746;28;20039;-80
2022/10/28 14:38:25;;;;;;;3.20;1.17;;;;;;;;;;10317223;28;20077;-79
2022/10/28 14:43:49;;;;;;;5.78;1.45;;;;;;;;;;10309778;28;20122;-79
2022/10/28 14:48:53;;;;;;;1.75;1.05;;;;;;;;;;10305756;28;20723;-79
2022/10/28 14:54:00;;;;;;;4.38;1.05;;;;;;;;;;10314606;28;20399;-79
2022/10/28 14:59:25;;;;;;;3.45;0.82;;;;;;;;;;10315202;28;20116;-77
2022/10/28 15:04:29;;;;;;;4.70;1.10;;;;;;;;;;10309750;28;20039;-77
2022/10/28 15:09:35;;;;;;;1.63;0.65;;;;;;;;;;10312988;28;20057;-78
2022/10/28 15:14:40;;;;;;;4.80;1.08;;;;;;;;;;10310731;28;20038;-79
2022/10/28 15:19:45;;;;;;;2.90;0.93;;;;;;;;;;10297554;28;20058;-80
2022/10/28 15:24:59;;;;;;;3.10;1.50;;;;;;;;;;10292063;28;20050;-79
2022/10/28 15:30:13;;;;;;;5.90;1.55;;;;;;;;;;10297428;28;20054;-78
2022/10/28 15:35:39;;;;;;;4.75;1.27;;;;;;;;;;10292501;28;20462;-80
2022/10/28 15:40:42;;;;;;;3.95;1.50;;;;;;;;;;10288063;28;20046;-80
2022/10/28 15:45:47;;;;;;;4.28;1.23;;;;;;;;;;10293810;28;20050;-78
2022/10/28 15:51:12;;;;;;;3.75;1.02;;;;;;;;;;10307143;28;20113;-79
2022/10/28 15:56:21;;;;;;;5.40;1.27;;;;;;;;;;10282820;28;20051;-78
2022/10/28 16:01:36;;;;;;;2.22;1.48;;;;;;;;;;10314993;28;20062;-78
2022/10/28 16:06:40;;;;;;;4.05;1.67;;;;;;;;;;10310134;28;20537;-78
2022/10/28 16:11:46;;;;;;;5.53;2.40;;;;;;;;;;10291382;28;20568;-79
2022/10/28 16:16:51;;;;;;;4.30;1.52;;;;;;;;;;10299233;28;20058;-78
2022/10/28 16:21:54;;;;;;;4.38;1.65;;;;;;;;;;10294067;28;20061;-79
2022/10/28 16:27:16;;;;;;;5.25;2.83;;;;;;;;;;10305352;28;20066;-79
2022/10/28 16:32:25;;;;;;;5.75;2.17;;;;;;;;;;10298576;28;20038;-80
2022/10/28 16:37:30;;;;;;;6.10;1.73;;;;;;;;;;10304485;28;20045;-79
2022/10/28 16:42:33;;;;;;;2.83;1.17;;;;;;;;;;10299294;28;20039;-79
2022/10/28 16:47:38;;;;;;;5.22;1.63;;;;;;;;;;10299164;28;20046;-80
2022/10/28 16:52:41;;;;;;;3.17;1.33;;;;;;;;;;10310241;28;20034;-80
2022/10/28 16:57:45;;;;;;;3.47;1.30;;;;;;;;;;10310021;28;20126;-78
2022/10/28 17:02:50;;;;;;;3.28;1.67;;;;;;;;;;10323211;28;20079;-79
2022/10/28 17:07:54;;;;;;;3.27;1.00;;;;;;;;;;10320590;28;20054;-78
2022/10/28 17:12:58;;;;;;;2.78;1.40;;;;;;;;;;10307939;28;20038;-80
2022/10/28 17:18:02;;;;;;;5.15;1.60;;;;;;;;;;10301383;28;20423;-77
2022/10/28 17:23:06;;;;;;;3.50;1.25;;;;;;;;;;10300799;28;20038;-78
2022/10/28 17:28:09;;;;;;;3.38;1.38;;;;;;;;;;10308519;28;20050;-78
2022/10/28 17:33:14;;;;;;;3.85;1.33;;;;;;;;;;10315748;28;20053;-76
2022/10/28 17:38:17;;;;;;;3.97;1.73;;;;;;;;;;10310747;28;20271;-78
2022/10/28 17:43:21;;;;;;;3.88;1.95;;;;;;;;;;10301099;28;20438;-77
2022/10/28 17:48:25;;;;;;;4.38;1.95;;;;;;;;;;10299286;28;20042;-78
2022/10/28 17:53:29;;;;;;;6.07;2.70;;;;;;;;;;10303586;28;20054;-76
2022/10/28 17:58:33;;;;;;;5.07;2.45;;;;;;;;;;10315371;28;20133;-79
2022/10/28 18:03:38;;;;;;;4.78;2.40;;;;;;;;;;10314284;28;20042;-78
2022/10/28 18:08:43;;;;;;;6.00;2.73;;;;;;;;;;10319947;28;20046;-80
2022/10/28 18:13:50;;;;;;;5.75;2.22;;;;;;;;;;10317220;28;20344;-79
2022/10/28 18:18:55;;;;;;;7.15;2.47;;;;;;;;;;10296899;28;20054;-80
2022/10/28 18:24:02;;;;;;;3.58;1.73;;;;;;;;;;10297821;28;20043;-78
2022/10/28 18:29:08;;;;;;;2.92;1.63;;;;;;;;;;10315784;28;20046;-80
2022/10/28 18:34:13;;;;;;;4.53;1.58;;;;;;;;;;10318015;28;20034;-77
2022/10/28 18:39:16;;;;;;;4.25;1.67;;;;;;;;;;10314870;28;20053;-79
2022/10/28 18:44:23;;;;;;;4.10;1.75;;;;;;;;;;10320815;28;20498;-78
2022/10/28 18:49:27;;;;;;;2.28;1.48;;;;;;;;;;10311315;28;20046;-78
2022/10/28 18:54:32;;;;;;;5.13;1.90;;;;;;;;;;10314553;28;20093;-79
2022/10/28 18:59:35;;;;;;;7.90;1.70;;;;;;;;;;10310922;28;20042;-76
2022/10/28 19:04:40;;;;;;;2.90;1.50;;;;;;;;;;10307065;28;20580;-79
2022/10/28 19:09:44;;;;;;;7.75;2.05;;;;;;;;;;10294287;28;20105;-80
2022/10/28 19:14:47;;;;;;;2.92;1.48;;;;;;;;;;10315788;28;20084;-78
2022/10/28 19:19:52;;;;;;;4.53;1.60;;;;;;;;;;10320506;28;20057;-79
2022/10/28 19:24:55;;;;;;;3.42;1.50;;;;;;;;;;10317334;28;20101;-79
2022/10/28 19:29:59;;;;;;;2.38;1.40;;;;;;;;;;10321147;28;20042;-76
2022/10/28 19:35:08;;;;;;;2.97;1.50;;;;;;;;;;10322771;28;20050;-77
2022/10/28 19:40:11;;;;;;;7.45;2.00;;;;;;;;;;10309313;28;20450;-78
2022/10/28 19:45:15;;;;;;;4.45;2.17;;;;;;;;;;10320166;28;20034;-79
2022/10/28 19:50:20;;;;;;;7.00;2.30;;;;;;;;;;10326460;28;20069;-77
2022/10/28 19:55:23;;;;;;;4.53;2.28;;;;;;;;;;10312525;28;20046;-79
2022/10/28 20:00:27;;;;;;;6.53;2.20;;;;;;;;;;10317371;28;20684;-76
2022/10/28 20:05:32;;;;;;;5.80;1.90;;;;;;;;;;10321953;28;20046;-78
2022/10/28 20:10:35;;;;;;;4.35;1.40;;;;;;;;;;10320568;28;20053;-77
2022/10/28 20:15:38;;;;;;;4.57;1.60;;;;;;;;;;10316725;28;20541;-79
2022/10/28 20:20:43;;;;;;;4.03;1.88;;;;;;;;;;10320769;28;20053;-80
2022/10/28 20:25:51;;;;;;;4.18;1.52;;;;;;;;;;10319965;28;20054;-79
2022/10/28 20:31:01;;;;;;;2.78;1.77;;;;;;;;;;10306719;28;20133;-79
2022/10/28 20:36:19;;;;;;;2.67;1.50;;;;;;;;;;10304737;28;20420;-76
2022/10/28 20:41:23;;;;;;;7.28;1.85;;;;;;;;;;10308567;28;20058;-78
2022/10/28 20:46:27;;;;;;;4.10;1.38;;;;;;;;;;10298382;28;20042;-77
2022/10/28 20:51:32;;;;;;;4.18;1.63;;;;;;;;;;10298547;28;20511;-80
2022/10/28 20:56:37;;;;;;;6.33;2.43;;;;;;;;;;10292769;28;20058;-78
2022/10/28 21:01:41;;;;;;;5.13;2.17;;;;;;;;;;10292473;28;20038;-79
2022/10/28 21:06:46;;;;;;;5.28;2.10;;;;;;;;;;10307524;28;20053;-78
2022/10/28 21:11:49;;;;;;;7.50;2.10;;;;;;;;;;10304568;28;20427;-77
2022/10/28 21:16:52;;;;;;;7.55;2.70;;;;;;;;;;10283422;28;20054;-78
2022/10/28 21:21:57;;;;;;;5.57;2.15;;;;;;;;;;10310438;28;20427;-77
2022/10/28 21:27:00;;;;;;;6.90;2.35;;;;;;;;;;10293947;28;20046;-77
2022/10/28 21:32:04;;;;;;;4.20;2.10;;;;;;;;;;10285375;28;20074;-79
2022/10/28 21:37:08;;;;;;;5.05;2.25;;;;;;;;;;10292163;28;20043;-77
2022/10/28 21:42:12;;;;;;;5.30;2.33;;;;;;;;;;10295158;28;20046;-79
2022/10/28 21:47:16;;;;;;;6.18;2.38;;;;;;;;;;10300532;28;20051;-77
2022/10/28 21:52:20;;;;;;;9.73;2.85;;;;;;;;;;10294867;28;20061;-78
2022/10/28 21:57:29;;;;;;;5.53;1.95;;;;;;;;;;10299254;28;20101;-77
2022/10/28 22:02:32;;;;;;;3.15;2.00;;;;;;;;;;10297930;28;20054;-79
2022/10/28 22:07:37;;;;;;;6.53;2.58;;;;;;;;;;10296633;28;20423;-76
2022/10/28 22:12:40;;;;;;;5.43;2.00;;;;;;;;;;10286737;28;20057;-78
2022/10/28 22:17:43;;;;;;;5.28;2.22;;;;;;;;;;10304443;28;20491;-79
2022/10/28 22:22:48;;;;;;;6.03;1.92;;;;;;;;;;10295068;28;20392;-79
2022/10/28 22:27:51;;;;;;;4.90;1.60;;;;;;;;;;10288623;28;20610;-78
2022/10/28 22:32:54;;;;;;;6.05;2.30;;;;;;;;;;10295582;28;20051;-79
2022/10/28 22:37:59;;;;;;;5.47;1.98;;;;;;;;;;10295728;28;20109;-78
2022/10/28 22:43:02;;;;;;;6.78;1.98;;;;;;;;;;10286985;28;20046;-80
2022/10/28 22:48:06;;;;;;;5.43;2.00;;;;;;;;;;10317570;28;20050;-79
2022/10/28 22:53:10;;;;;;;4.57;1.50;;;;;;;;;;10288216;28;20057;-79
2022/10/28 22:58:15;;;;;;;6.65;1.73;;;;;;;;;;10304150;28;20039;-79
2022/10/28 23:03:19;;;;;;;7.43;2.50;;;;;;;;;;10295141;28;20038;-78
2022/10/28 23:08:23;;;;;;;3.22;1.67;;;;;;;;;;10308996;28;20042;-78
2022/10/28 23:13:27;;;;;;;5.40;1.85;;;;;;;;;;10301920;28;20073;-77
2022/10/28 23:18:30;;;;;;;7.60;1.73;;;;;;;;;;10300731;28;20049;-78
2022/10/28 23:23:35;;;;;;;5.13;2.03;;;;;;;;;;10291208;28;20066;-78
2022/10/28 23:28:38;;;;;;;4.95;2.00;;;;;;;;;;10309184;28;20057;-78
2022/10/28 23:33:41;;;;;;;3.33;1.27;;;;;;;;;;10306401;28;20066;-79
2022/10/28 23:38:46;;;;;;;9.40;2.15;;;;;;;;;;10310687;28;20042;-79
2022/10/28 23:43:49;;;;;;;4.22;2.17;;;;;;;;;;10315645;28;20054;-79
2022/10/28 23:48:53;;;;;;;3.78;1.90;;;;;;;;;;10314923;28;20498;-78
2022/10/28 23:53:58;;;;;;;4.60;2.13;;;;;;;;;;10307847;28;20062;-77
2022/10/28 23:59:02;;;;;;;23.03;3.33;;;;;;;;;;10307968;28;20050;-78
